Time;durP1;ratioP1;P1;durP2;ratioP2;P2;SDS_P1;SDS_P2;PMS_P1;PMS_P2;Temp;Humidity;BMP_temperature;BMP_pressure;BME280_temperature;BME280_humidity;BME280_pressure;Samples;Min_cycle;Max_cycle;Signal;HPM_P1;HPM_P2
2022/05/11 00:00:41;;;;;;;7.03;6.07;;;20.10;55.60;;;20.27;47.71;97701.50;5027679;28;20053;-39
2022/05/11 00:03:10;;;;;;;6.80;6.10;;;20.10;55.60;;;20.25;47.68;97703.59;5026902;28;20037;-40
2022/05/11 00:05:38;;;;;;;7.20;6.25;;;20.00;55.40;;;20.22;47.47;97699.47;5026692;28;20050;-40
2022/05/11 00:08:07;;;;;;;12.00;6.45;;;20.10;55.50;;;20.19;47.55;97699.09;5043425;28;20369;-40
2022/05/11 00:10:36;;;;;;;7.03;5.90;;;20.10;55.40;;;20.16;47.59;97691.41;5027368;28;20053;-40
2022/05/11 00:13:04;;;;;;;7.80;6.53;;;20.00;55.30;;;20.14;47.67;97699.75;5027023;28;20055;-40
2022/05/11 00:15:33;;;;;;;7.97;6.30;;;20.00;55.40;;;20.12;47.77;97695.59;5027652;28;20064;-40
2022/05/11 00:18:02;;;;;;;6.88;6.25;;;20.00;55.50;;;20.11;47.82;97697.50;5027142;28;20336;-40
2022/05/11 00:20:30;;;;;;;6.82;5.90;;;20.00;55.70;;;20.08;47.80;97681.72;5027490;28;20053;-40
2022/05/11 00:22:59;;;;;;;7.00;6.05;;;19.90;55.80;;;20.05;48.00;97695.69;5027379;28;20064;-40
2022/05/11 00:25:28;;;;;;;7.03;6.38;;;19.80;55.80;;;20.00;47.95;97684.69;5027907;28;20056;-39
2022/05/11 00:27:58;;;;;;;7.35;6.65;;;19.80;55.80;;;19.97;47.83;97687.84;5029060;28;20049;-40
2022/05/11 00:30:28;;;;;;;5.68;5.18;;;19.80;55.70;;;19.95;47.95;97684.50;5028746;28;20055;-41
2022/05/11 00:32:59;;;;;;;6.60;6.00;;;19.80;55.80;;;19.94;48.17;97683.69;5026973;28;20049;-40
2022/05/11 00:35:33;;;;;;;6.40;5.80;;;19.80;55.80;;;19.94;47.93;97678.28;5027467;28;20053;-39
2022/05/11 00:38:02;;;;;;;6.88;6.00;;;19.80;55.70;;;19.95;48.01;97681.81;5027221;28;20041;-39
2022/05/11 00:40:31;;;;;;;6.60;5.95;;;19.90;55.60;;;19.95;48.00;97681.81;5027953;28;20419;-40
2022/05/11 00:42:59;;;;;;;6.30;5.60;;;19.80;55.40;;;19.92;47.84;97674.16;5026419;28;20053;-39
2022/05/11 00:45:27;;;;;;;7.97;5.85;;;19.90;55.50;;;19.90;47.96;97676.25;5027786;28;20049;-39
2022/05/11 00:49:33;;;;;;;5.85;5.30;;;19.80;55.50;;;19.87;47.98;97677.50;5026256;28;20083;-39
2022/05/11 00:50:56;;;;;;;7.78;5.53;;;19.80;55.50;;;19.86;47.73;97668.59;5027392;28;20061;-39
2022/05/11 00:53:24;;;;;;;6.75;5.40;;;19.80;55.50;;;19.83;47.86;97671.75;5025971;28;20347;-39
2022/05/11 00:55:59;;;;;;;10.48;6.10;;;19.70;55.50;;;19.82;47.89;97666.56;5026106;28;20049;-40
2022/05/11 00:58:45;;;;;;;6.75;5.90;;;19.70;55.40;;;19.80;47.84;97668.66;5025602;28;20108;-40
2022/05/11 01:01:14;;;;;;;7.57;5.72;;;19.70;55.30;;;19.77;47.86;97658.28;5026396;28;20049;-40
2022/05/11 01:03:53;;;;;;;6.07;4.97;;;19.70;55.20;;;19.72;47.86;97667.03;5041840;28;20107;-41
2022/05/11 01:06:23;;;;;;;5.55;5.05;;;19.70;55.40;;;19.70;47.76;97662.84;5026734;28;20339;-40
2022/05/11 01:08:50;;;;;;;5.20;4.65;;;19.60;55.20;;;19.67;47.67;97658.72;5024689;28;20061;-40
2022/05/11 01:11:18;;;;;;;5.80;5.20;;;19.60;55.20;;;19.66;47.56;97657.09;5026722;28;20068;-40
2022/05/11 01:13:47;;;;;;;6.03;5.32;;;19.60;55.20;;;19.64;47.80;97662.72;5026230;28;20216;-40
2022/05/11 01:16:15;;;;;;;6.22;5.63;;;19.60;55.10;;;19.64;47.63;97657.31;5026392;28;20067;-40
2022/05/11 01:18:44;;;;;;;5.28;4.65;;;19.50;55.20;;;19.61;47.71;97665.84;5025503;28;20045;-41
2022/05/11 01:21:12;;;;;;;7.43;5.38;;;19.50;55.40;;;19.60;47.82;97661.50;5025493;28;20041;-40
2022/05/11 01:23:54;;;;;;;5.78;5.28;;;19.40;55.50;;;19.56;47.99;97657.59;5024698;28;20259;-40
2022/05/11 01:26:22;;;;;;;5.85;4.80;;;19.40;55.80;;;19.55;47.98;97655.09;5027029;28;20045;-40
2022/05/11 01:28:54;;;;;;;8.63;5.25;;;19.40;55.60;;;19.53;48.01;97658.00;5025543;28;20361;-40
2022/05/11 01:31:22;;;;;;;5.60;5.00;;;19.40;55.60;;;19.51;48.08;97648.47;5026866;28;20045;-40
2022/05/11 01:33:51;;;;;;;8.25;5.32;;;19.40;55.60;;;19.49;48.01;97654.09;5030697;28;20061;-39
2022/05/11 01:36:31;;;;;;;5.57;5.07;;;19.30;55.80;;;19.51;48.10;97654.69;5029971;28;20255;-40
2022/05/11 01:39:06;;;;;;;6.57;5.10;;;19.30;55.70;;;19.50;48.04;97653.03;5030329;28;20170;-40
2022/05/11 01:41:52;;;;;;;5.18;4.68;;;19.40;55.80;;;19.48;48.16;97661.38;5029655;28;20045;-40
2022/05/11 01:44:21;;;;;;;5.65;4.63;;;19.40;56.00;;;19.49;48.24;97651.38;5030891;28;20051;-41
2022/05/11 01:46:58;;;;;;;6.05;5.45;;;19.30;55.80;;;19.47;48.27;97646.19;5030877;28;20051;-40
2022/05/11 01:49:27;;;;;;;5.68;5.00;;;19.30;55.90;;;19.48;48.47;97652.41;5029932;28;20045;-40
2022/05/11 01:51:55;;;;;;;5.68;5.18;;;19.40;56.00;;;19.45;48.31;97653.69;5028457;28;20068;-41
2022/05/11 01:54:23;;;;;;;8.68;5.38;;;19.30;56.00;;;19.44;48.41;97646.66;5028745;28;20061;-40
2022/05/11 01:56:51;;;;;;;7.90;6.03;;;19.30;56.20;;;19.41;48.51;97640.88;5029069;28;20042;-40
2022/05/11 01:59:19;;;;;;;5.70;5.07;;;19.30;56.20;;;19.39;48.59;97638.38;5029811;28;20045;-40
2022/05/11 02:01:47;;;;;;;5.95;4.90;;;19.30;56.30;;;19.38;48.72;97649.38;5029091;28;20057;-40
2022/05/11 02:09:47;;;;;;;6.57;5.53;;;19.30;56.50;;;19.33;48.77;97651.91;5030655;28;20069;-40
2022/05/11 02:12:15;;;;;;;6.45;4.88;;;19.20;56.60;;;19.28;48.89;97644.47;5029698;28;20057;-40
2022/05/11 02:14:42;;;;;;;5.20;4.70;;;19.20;56.50;;;19.24;48.96;97641.38;5027560;28;20068;-39
2022/05/11 02:17:10;;;;;;;5.97;5.22;;;19.10;57.00;;;19.23;48.97;97642.41;5029083;28;20254;-39
2022/05/11 02:19:38;;;;;;;5.82;5.00;;;19.10;56.90;;;19.21;49.05;97640.97;5030723;28;20068;-39
2022/05/11 02:22:06;;;;;;;5.45;4.93;;;19.10;56.90;;;19.20;48.94;97648.25;5029641;28;20055;-39
2022/05/11 02:24:34;;;;;;;6.45;4.55;;;19.10;56.80;;;19.19;49.04;97643.06;5045079;28;20049;-40
2022/05/11 02:27:03;;;;;;;6.53;5.35;;;19.10;56.80;;;19.15;49.27;97636.44;5028693;28;20042;-39
2022/05/11 02:29:32;;;;;;;6.22;5.65;;;19.10;57.00;;;19.13;49.09;97639.34;5027597;28;20049;-40
2022/05/11 02:31:59;;;;;;;7.22;5.00;;;19.10;56.90;;;19.15;49.05;97639.94;5028819;28;20149;-39
2022/05/11 02:37:14;;;;;;;5.60;4.80;;;19.00;56.70;;;19.11;49.14;97640.63;5029611;28;20049;-39
2022/05/11 02:39:42;;;;;;;7.07;5.20;;;19.00;56.90;;;19.08;49.26;97640.00;5030583;28;20153;-39
2022/05/11 02:42:10;;;;;;;6.18;5.10;;;19.00;56.70;;;19.12;49.34;97635.00;5028631;28;20264;-40
2022/05/11 02:44:38;;;;;;;7.25;4.80;;;19.00;56.70;;;19.14;49.16;97637.50;5028899;28;20422;-40
2022/05/11 02:47:06;;;;;;;5.18;4.68;;;19.00;56.80;;;19.11;49.09;97632.53;5028935;28;20037;-39
2022/05/11 02:49:34;;;;;;;5.93;4.82;;;19.10;57.00;;;19.10;49.15;97638.97;5029044;28;20053;-39
2022/05/11 02:52:02;;;;;;;7.35;5.28;;;19.00;57.10;;;19.11;49.22;97643.31;5028573;28;20250;-39
2022/05/11 02:54:29;;;;;;;5.43;4.93;;;19.00;57.30;;;19.08;49.30;97631.09;5027858;28;20045;-40
2022/05/11 02:56:57;;;;;;;6.57;5.40;;;19.00;57.00;;;19.06;49.35;97641.28;5029905;28;20351;-39
2022/05/11 02:59:25;;;;;;;5.45;4.95;;;19.00;57.10;;;19.07;49.45;97637.50;5045579;28;20056;-39
2022/05/11 03:01:53;;;;;;;6.18;4.93;;;18.90;57.40;;;19.03;49.47;97639.00;5029700;28;20259;-39
2022/05/11 03:04:21;;;;;;;6.20;5.13;;;18.90;57.40;;;19.03;49.53;97639.00;5027987;28;20041;-40
2022/05/11 03:06:49;;;;;;;5.75;4.78;;;19.00;57.50;;;19.03;49.65;97636.28;5028460;28;20060;-40
2022/05/11 03:09:17;;;;;;;5.35;4.85;;;19.00;57.50;;;19.02;49.64;97630.09;5028427;28;20050;-39
2022/05/11 03:11:46;;;;;;;5.68;5.13;;;19.00;57.50;;;19.02;49.75;97631.97;5027280;28;20250;-39
2022/05/11 03:14:14;;;;;;;5.75;5.25;;;19.00;57.60;;;19.02;49.72;97623.88;5029386;28;20060;-40
2022/05/11 03:16:43;;;;;;;9.93;5.07;;;18.90;57.60;;;19.00;49.75;97632.16;5028492;28;20053;-40
2022/05/11 03:19:11;;;;;;;6.97;5.28;;;18.90;57.70;;;19.00;49.90;97631.31;5027661;28;20045;-40
2022/05/11 03:21:39;;;;;;;6.25;5.60;;;18.90;57.80;;;18.98;49.90;97626.16;5027868;28;20049;-40
2022/05/11 03:24:07;;;;;;;5.35;4.85;;;18.90;58.00;;;18.95;49.97;97623.88;5028358;28;20049;-40
2022/05/11 03:26:35;;;;;;;5.45;4.90;;;18.80;58.10;;;18.91;50.14;97624.53;5028977;28;20060;-40
2022/05/11 03:29:05;;;;;;;6.00;5.18;;;18.80;58.40;;;18.88;50.23;97628.47;5026324;28;20045;-40
2022/05/11 03:31:35;;;;;;;5.07;4.40;;;18.70;58.50;;;18.90;50.26;97626.38;5027612;28;20049;-40
2022/05/11 03:36:51;;;;;;;5.05;4.55;;;18.70;58.50;;;18.85;50.10;97623.53;5028019;28;20357;-40
2022/05/11 03:39:19;;;;;;;5.60;5.05;;;18.70;58.30;;;18.85;50.32;97623.53;5027669;28;20250;-40
2022/05/11 03:41:47;;;;;;;5.45;4.95;;;18.70;58.40;;;18.80;50.41;97620.63;5027853;28;20236;-40
2022/05/11 03:44:15;;;;;;;5.60;4.90;;;18.70;58.70;;;18.74;50.51;97613.38;5028274;28;20151;-40
2022/05/11 03:46:43;;;;;;;5.82;5.22;;;18.60;58.80;;;18.73;50.56;97614.41;5027365;28;20049;-40
2022/05/11 03:49:11;;;;;;;5.57;4.95;;;18.60;58.70;;;18.74;50.51;97613.38;5042311;28;20048;-40
2022/05/11 03:51:38;;;;;;;5.80;4.68;;;18.60;58.80;;;18.74;50.65;97616.06;5028467;28;20058;-40
2022/05/11 03:54:06;;;;;;;6.03;5.20;;;18.70;58.90;;;18.70;50.68;97610.28;5027688;28;20060;-41
2022/05/11 03:56:34;;;;;;;5.53;5.00;;;18.60;58.90;;;18.70;50.66;97604.88;5026529;28;20437;-40
2022/05/11 03:59:02;;;;;;;5.63;5.13;;;18.60;58.90;;;18.67;50.62;97614.25;5027410;28;20045;-41
2022/05/11 04:01:29;;;;;;;5.43;4.80;;;18.60;58.80;;;18.67;50.73;97616.13;5027572;28;20049;-40
2022/05/11 04:03:57;;;;;;;5.88;5.18;;;18.60;58.80;;;18.65;50.76;97613.63;5026994;28;20055;-40
2022/05/11 04:06:26;;;;;;;7.70;5.25;;;18.60;59.00;;;18.64;50.77;97616.53;5027297;28;20238;-39
2022/05/11 04:08:54;;;;;;;5.70;4.97;;;18.60;58.90;;;18.62;50.91;97618.59;5025161;28;20053;-40
2022/05/11 04:11:22;;;;;;;5.32;4.60;;;18.60;59.10;;;18.63;50.75;97612.16;5027050;28;20053;-40
2022/05/11 04:13:51;;;;;;;5.30;4.80;;;18.50;59.10;;;18.61;50.77;97617.78;5027091;28;20079;-40
2022/05/11 04:16:19;;;;;;;5.68;4.97;;;18.50;59.00;;;18.63;50.66;97620.25;5026930;28;20065;-40
2022/05/11 04:18:47;;;;;;;7.45;5.10;;;18.50;59.00;;;18.61;50.64;97608.84;5026966;28;20047;-40
2022/05/11 04:21:15;;;;;;;5.90;5.30;;;18.50;58.80;;;18.62;50.66;97618.59;5026989;28;20116;-40
2022/05/11 04:23:43;;;;;;;5.57;5.03;;;18.60;58.70;;;18.62;50.56;97615.91;5027085;28;20053;-40
2022/05/11 04:26:13;;;;;;;6.82;5.05;;;18.60;58.70;;;18.59;50.61;97616.31;5027233;28;20053;-41
2022/05/11 04:28:43;;;;;;;5.38;4.60;;;18.50;58.80;;;18.61;50.69;97623.19;5026757;28;20060;-41
2022/05/11 04:31:13;;;;;;;5.88;5.18;;;18.60;58.60;;;18.59;50.57;97613.63;5027244;28;20049;-40
2022/05/11 04:33:41;;;;;;;5.95;5.35;;;18.50;58.70;;;18.58;50.59;97625.47;5027172;28;20049;-40
2022/05/11 04:36:09;;;;;;;5.90;4.38;;;18.50;58.50;;;18.60;50.50;97626.09;5028526;28;20067;-41
2022/05/11 04:38:37;;;;;;;6.57;5.25;;;18.60;58.30;;;18.57;50.50;97615.72;5026950;28;20075;-40
2022/05/11 04:41:05;;;;;;;5.78;5.15;;;18.50;58.40;;;18.57;50.50;97623.81;5026241;28;20056;-40
2022/05/11 04:43:32;;;;;;;5.32;4.70;;;18.50;58.50;;;18.57;50.58;97613.03;5027389;28;20278;-40
2022/05/11 04:46:00;;;;;;;8.73;4.78;;;18.50;58.50;;;18.55;50.63;97624.00;5026903;28;20052;-40
2022/05/11 04:48:28;;;;;;;5.30;4.80;;;18.50;58.50;;;18.57;50.60;97627.34;5027401;28;20272;-40
2022/05/11 04:51:04;;;;;;;6.05;4.78;;;18.50;58.50;;;18.59;50.81;97619.03;5026614;28;20407;-40
2022/05/11 04:53:32;;;;;;;7.22;5.50;;;18.60;58.70;;;18.59;50.63;97625.25;5042277;28;20053;-40
2022/05/11 04:56:00;;;;;;;5.45;4.95;;;18.50;58.50;;;18.59;50.56;97619.88;5027310;28;20063;-41
2022/05/11 04:58:28;;;;;;;4.97;4.47;;;18.50;58.60;;;18.60;50.65;97623.38;5024877;28;20063;-41
2022/05/11 05:00:56;;;;;;;6.72;5.20;;;18.50;58.70;;;18.60;50.63;97628.78;5025222;28;20037;-41
2022/05/11 05:03:24;;;;;;;5.18;4.68;;;18.50;58.70;;;18.59;50.84;97633.34;5026879;28;20042;-41
2022/05/11 05:05:52;;;;;;;6.47;5.40;;;18.50;58.90;;;18.58;50.71;97630.88;5025715;28;20049;-40
2022/05/11 05:08:20;;;;;;;6.70;5.05;;;18.50;58.90;;;18.58;50.70;97631.69;5029351;28;20327;-41
2022/05/11 05:10:53;;;;;;;5.63;4.25;;;18.50;58.80;;;18.60;50.89;97629.59;5031798;28;20343;-40
2022/05/11 05:13:21;;;;;;;5.03;4.53;;;18.50;59.60;;;18.59;50.81;97635.19;5030705;28;20359;-40
2022/05/11 05:15:56;;;;;;;7.05;5.07;;;18.50;58.90;;;18.57;51.16;97640.81;5046126;28;20255;-40
2022/05/11 05:18:24;;;;;;;6.93;5.15;;;18.50;59.20;;;18.58;50.91;97631.69;5029746;28;20061;-40
2022/05/11 05:20:53;;;;;;;5.43;4.57;;;18.50;58.90;;;18.59;50.99;97635.19;5030554;28;20208;-40
2022/05/11 05:23:20;;;;;;;7.10;5.15;;;18.60;58.90;;;18.60;51.06;97631.47;5028133;28;20050;-40
2022/05/11 05:25:49;;;;;;;5.32;4.82;;;18.60;58.90;;;18.61;50.90;97639.34;5030421;28;20251;-40
2022/05/11 05:31:09;;;;;;;5.70;4.50;;;18.60;59.00;;;18.64;51.23;97638.09;5029844;28;20056;-40
2022/05/11 05:33:39;;;;;;;6.13;4.68;;;18.70;59.00;;;18.64;51.13;97640.78;5027780;28;20072;-40
2022/05/11 05:36:09;;;;;;;6.55;5.03;;;18.60;59.00;;;18.65;51.21;97643.28;5029924;28;20060;-40
2022/05/11 05:38:38;;;;;;;5.70;5.10;;;18.60;59.00;;;18.67;51.10;97630.41;5030670;28;20056;-40
2022/05/11 05:41:09;;;;;;;6.32;5.25;;;18.70;59.10;;;18.70;51.07;97634.53;5030553;28;20056;-40
2022/05/11 05:43:38;;;;;;;5.05;4.15;;;18.70;58.90;;;18.73;51.11;97635.97;5029339;28;20064;-40
2022/05/11 05:46:06;;;;;;;5.55;4.97;;;18.80;58.90;;;18.75;51.18;97629.34;5030778;28;20051;-40
2022/05/11 05:48:34;;;;;;;5.68;4.93;;;18.80;59.00;;;18.78;51.14;97639.69;5028820;28;20354;-39
2022/05/11 05:51:12;;;;;;;5.07;4.57;;;18.80;58.90;;;18.80;51.11;97642.22;5029910;28;20049;-40
2022/05/11 05:53:41;;;;;;;5.80;5.05;;;18.80;59.20;;;18.81;51.22;97633.09;5029933;28;20065;-40
2022/05/11 05:56:11;;;;;;;6.38;5.13;;;18.80;59.10;;;18.82;51.31;97638.25;5029406;28;20079;-40
2022/05/11 05:58:42;;;;;;;5.20;4.70;;;18.80;59.10;;;18.83;51.28;97641.78;5029274;28;20058;-40
2022/05/11 06:01:12;;;;;;;5.28;4.70;;;18.80;59.70;;;18.88;51.23;97641.97;5027722;28;20064;-40
2022/05/11 06:03:41;;;;;;;5.40;4.90;;;18.90;58.90;;;18.91;51.13;97646.13;5029781;28;20049;-40
2022/05/11 06:06:10;;;;;;;5.85;5.25;;;18.90;58.90;;;18.94;51.24;97640.28;5028092;28;20053;-40
2022/05/11 06:08:38;;;;;;;7.05;4.80;;;19.00;58.90;;;18.96;51.18;97639.03;5028609;28;20217;-39
2022/05/11 06:11:09;;;;;;;5.30;4.82;;;19.00;59.00;;;18.98;51.38;97641.50;5031206;28;20054;-40
2022/05/11 06:13:39;;;;;;;5.20;4.50;;;19.10;59.00;;;19.04;51.31;97646.06;5029620;28;20057;-40
2022/05/11 06:16:14;;;;;;;5.43;4.63;;;19.10;58.90;;;19.07;51.24;97643.72;5029669;28;20374;-41
2022/05/11 06:18:44;;;;;;;7.35;4.43;;;19.20;58.90;;;19.12;51.08;97648.50;5028051;28;20267;-41
2022/05/11 06:21:14;;;;;;;7.28;5.10;;;19.20;58.70;;;19.15;51.12;97645.34;5029473;28;20053;-40
2022/05/11 06:23:42;;;;;;;6.63;4.15;;;19.20;58.70;;;19.19;51.01;97643.91;5028493;28;20056;-41
2022/05/11 06:26:11;;;;;;;5.30;4.75;;;19.30;58.80;;;19.21;51.10;97643.66;5029219;28;20041;-39
2022/05/11 06:28:41;;;;;;;5.43;4.93;;;19.20;58.70;;;19.22;51.39;97648.84;5028496;28;20053;-39
2022/05/11 06:31:19;;;;;;;4.95;4.18;;;19.30;58.70;;;19.26;51.00;97643.84;5031558;28;20052;-40
2022/05/11 06:33:50;;;;;;;7.15;4.28;;;19.30;58.60;;;19.28;51.01;97650.69;5026714;28;20344;-40
2022/05/11 06:36:19;;;;;;;5.07;4.45;;;19.40;58.60;;;19.31;51.12;97644.03;5029719;28;20069;-40
2022/05/11 06:38:47;;;;;;;6.55;5.10;;;19.40;58.60;;;19.35;51.12;97644.41;5027036;28;20243;-39
2022/05/11 06:41:20;;;;;;;5.25;4.18;;;19.40;58.60;;;19.36;51.08;97636.09;5029310;28;20252;-48
2022/05/11 06:43:49;;;;;;;5.65;4.35;;;19.50;58.50;;;19.40;50.80;97633.78;5029552;28;20260;-52
2022/05/11 06:46:18;;;;;;;6.60;4.68;;;19.50;58.40;;;19.45;50.93;97636.69;5028490;28;20344;-50
2022/05/11 06:48:47;;;;;;;5.18;4.25;;;19.50;58.30;;;19.48;50.87;97633.53;5027959;28;20080;-47
2022/05/11 06:51:18;;;;;;;4.53;4.10;;;19.60;58.40;;;19.53;50.79;97633.72;5028253;28;20053;-52
2022/05/11 06:59:33;;;;;;;7.63;4.78;;;19.70;58.50;;;19.70;50.90;97631.31;5028592;28;20064;-35
2022/05/11 07:02:06;;;;;;;8.43;5.32;;;19.80;58.30;;;21.21;57.08;97649.91;5029526;28;20046;-35
2022/05/11 07:04:36;;;;;;;5.10;4.60;;;20.70;86.50;;;20.58;52.65;97634.84;5030126;28;20261;-35
2022/05/11 07:07:06;;;;;;;4.45;4.05;;;20.20;69.40;;;19.78;54.06;97636.47;5028585;28;20053;-35
2022/05/11 07:09:35;;;;;;;4.57;4.07;;;19.60;69.60;;;19.39;54.29;97632.16;5028350;28;20046;-35
2022/05/11 07:12:20;;;;;;;5.40;4.72;;;19.40;67.90;;;19.22;56.05;97632.66;5025493;28;20057;-35
2022/05/11 07:14:59;;;;;;;4.80;4.40;;;19.30;68.90;;;19.10;55.18;97634.41;5037267;28;20385;-35
2022/05/11 07:17:42;;;;;;;4.88;4.40;;;19.30;67.90;;;19.01;56.07;97628.41;5038322;28;20248;-35
2022/05/11 07:20:48;;;;;;;4.65;4.18;;;19.40;67.90;;;18.91;60.64;97632.63;5039251;28;20063;-35
2022/05/11 07:23:25;;;;;;;4.63;4.15;;;19.40;67.70;;;18.92;55.97;97627.03;5033094;28;20327;-35
2022/05/11 07:26:01;;;;;;;4.80;4.20;;;19.40;67.30;;;18.95;55.62;97628.47;5037288;28;20052;-35
2022/05/11 07:28:31;;;;;;;5.18;4.65;;;19.40;66.70;;;18.95;55.68;97621.19;5038013;28;20063;-36
2022/05/11 07:31:02;;;;;;;5.03;4.10;;;19.50;66.40;;;19.01;55.76;97623.03;5037974;28;20073;-36
2022/05/11 07:33:33;;;;;;;5.40;4.70;;;19.60;65.60;;;19.11;55.20;97635.22;5053827;28;20060;-35
2022/05/11 07:36:03;;;;;;;5.72;4.35;;;19.60;66.00;;;19.23;54.85;97622.69;5037505;28;20068;-35
2022/05/11 07:38:38;;;;;;;4.57;4.07;;;19.60;65.50;;;19.46;53.76;97622.13;5038613;28;20059;-35
2022/05/11 07:41:07;;;;;;;4.65;4.25;;;19.70;64.90;;;19.67;53.34;97624.44;5038102;28;20049;-35
2022/05/11 07:43:37;;;;;;;5.45;4.57;;;19.80;64.60;;;19.85;52.93;97625.59;5038287;28;20067;-35
2022/05/11 07:46:04;;;;;;;4.45;4.05;;;19.90;63.60;;;19.98;52.10;97625.47;5036730;28;20385;-36
2022/05/11 07:48:32;;;;;;;4.63;4.13;;;20.00;62.60;;;20.13;51.82;97627.00;5039063;28;20397;-35
2022/05/11 07:51:13;;;;;;;6.25;4.15;;;20.10;62.30;;;20.24;51.19;97629.81;5038683;28;20049;-35
2022/05/11 07:53:49;;;;;;;4.38;3.97;;;20.20;61.70;;;20.38;51.00;97622.38;5037958;28;20240;-35
2022/05/11 08:01:59;;;;;;;4.38;3.92;;;20.50;61.10;;;20.61;50.10;97627.16;5039030;28;20053;-35
2022/05/11 08:04:27;;;;;;;6.57;3.97;;;20.60;60.10;;;20.68;50.06;97626.22;5039098;28;20064;-35
2022/05/11 08:06:56;;;;;;;5.38;4.82;;;20.60;59.40;;;20.79;49.52;97618.19;5038774;28;20037;-35
2022/05/11 08:09:26;;;;;;;4.85;4.35;;;20.70;58.70;;;20.84;49.25;97614.81;5039107;28;20045;-35
2022/05/11 08:11:56;;;;;;;6.97;4.10;;;20.80;58.20;;;20.91;48.97;97612.81;5037085;28;20057;-35
2022/05/11 08:14:25;;;;;;;5.13;4.03;;;20.80;58.30;;;20.99;48.73;97620.63;5037928;28;20053;-34
2022/05/11 08:16:57;;;;;;;4.18;3.78;;;20.90;58.20;;;21.02;48.78;97613.94;5037417;28;20236;-35
2022/05/11 08:19:28;;;;;;;6.28;3.90;;;21.00;57.90;;;21.11;48.31;97612.56;5038434;28;20065;-36
2022/05/11 08:21:58;;;;;;;5.38;4.30;;;21.00;57.30;;;21.16;47.99;97603.75;5035699;28;20352;-35
2022/05/11 08:24:31;;;;;;;4.43;3.30;;;21.10;57.30;;;21.23;48.09;97615.31;5013228;28;20053;-35
2022/05/11 08:26:59;;;;;;;4.88;3.83;;;21.20;57.30;;;21.32;46.91;97596.84;5038579;28;20049;-35
2022/05/11 08:35:15;;;;;;;4.80;4.05;;;21.50;54.60;;;21.57;46.35;97604.84;5037402;28;20228;-35
2022/05/11 08:37:53;;;;;;;4.60;3.67;;;21.60;54.10;;;21.63;46.05;97595.78;5037020;28;20041;-35
2022/05/11 08:41:04;;;;;;;4.90;3.70;;;21.80;53.30;;;21.71;45.32;97589.19;5037411;28;20051;-35
2022/05/11 08:43:43;;;;;;;4.82;3.65;;;22.00;50.90;;;21.80;45.28;97583.19;5037032;28;20046;-35
2022/05/11 08:46:56;;;;;;;5.70;3.92;;;22.10;51.50;;;21.88;44.35;97589.31;5019776;28;20045;-35
2022/05/11 08:49:45;;;;;;;3.90;3.50;;;22.20;50.40;;;21.98;45.27;97584.97;5035579;28;20045;-35
2022/05/11 08:52:56;;;;;;;4.10;3.70;;;22.30;51.80;;;22.07;44.16;97587.31;5031103;28;20045;-36
2022/05/11 08:55:42;;;;;;;4.82;3.60;;;22.40;49.30;;;22.13;43.75;97580.94;5041558;28;20049;-35
2022/05/11 08:58:28;;;;;;;4.72;4.32;;;22.50;49.60;;;22.20;43.85;97577.06;5041062;28;20049;-36
2022/05/11 09:00:58;;;;;;;5.03;3.70;;;22.50;50.60;;;22.25;44.53;97584.50;5041891;28;20056;-36
2022/05/11 09:03:39;;;;;;;4.32;3.78;;;22.60;51.00;;;22.28;43.78;97578.63;5040564;28;20048;-36
2022/05/11 09:06:27;;;;;;;4.03;3.45;;;22.60;49.20;;;22.31;43.38;97582.72;5038977;28;20339;-36
2022/05/11 09:08:57;;;;;;;6.00;4.00;;;22.70;48.10;;;22.33;43.41;97578.72;5041534;28;20045;-36
2022/05/11 09:11:40;;;;;;;4.13;3.70;;;22.70;48.90;;;22.39;43.64;97583.19;5041946;28;20042;-35
2022/05/11 09:14:08;;;;;;;4.75;4.35;;;22.80;49.30;;;22.46;43.27;97579.53;5040448;28;20255;-36
2022/05/11 09:16:49;;;;;;;4.80;3.70;;;22.80;49.00;;;22.49;43.25;97577.16;5041985;28;20045;-36
2022/05/11 09:19:23;;;;;;;6.38;4.15;;;22.90;48.60;;;22.53;42.67;97570.19;5041243;28;20053;-36
2022/05/11 09:21:57;;;;;;;4.82;4.43;;;22.90;48.40;;;22.60;42.96;97562.75;5041856;28;20049;-36
2022/05/11 09:25:04;;;;;;;4.57;3.95;;;23.00;48.70;;;22.71;43.21;97574.63;5041453;28;20045;-36
2022/05/11 09:27:37;;;;;;;5.22;4.22;;;23.10;49.50;;;22.81;43.06;97574.00;5040962;28;20351;-35
2022/05/11 09:30:30;;;;;;;5.47;4.15;;;23.20;48.50;;;22.84;41.67;97568.09;5041882;28;20370;-36
2022/05/11 09:33:25;;;;;;;5.63;4.65;;;23.30;46.50;;;22.89;42.32;97561.94;5041290;28;20079;-35
2022/05/11 09:35:53;;;;;;;5.03;4.53;;;23.30;46.90;;;22.97;42.34;97556.94;5041233;28;20353;-35
2022/05/11 09:38:44;;;;;;;4.95;4.45;;;23.40;48.10;;;23.07;42.29;97559.06;5041525;28;20336;-35
2022/05/11 09:41:13;;;;;;;3.97;3.58;;;23.50;47.80;;;23.16;42.48;97564.91;5041977;28;20045;-36
2022/05/11 09:43:54;;;;;;;5.60;4.97;;;23.70;48.00;;;23.22;41.86;97557.66;5041754;28;20042;-35
2022/05/11 09:46:32;;;;;;;4.30;3.90;;;23.70;46.10;;;23.28;41.21;97557.50;5040614;28;20049;-35
2022/05/11 09:49:24;;;;;;;8.02;4.60;;;23.90;45.60;;;23.40;41.02;97549.31;5042320;28;20045;-35
2022/05/11 09:51:58;;;;;;;7.03;4.30;;;23.90;46.60;;;23.48;42.05;97548.88;5040633;28;20041;-35
2022/05/11 09:54:46;;;;;;;4.70;4.10;;;24.10;46.90;;;23.62;41.57;97552.09;5042556;28;20049;-35
2022/05/11 09:57:28;;;;;;;4.55;4.10;;;24.20;45.40;;;23.73;41.55;97547.63;5045668;28;20049;-36
2022/05/11 10:00:33;;;;;;;6.07;5.47;;;24.30;46.80;;;23.82;41.21;97548.09;5045733;28;20053;-36
2022/05/11 10:03:07;;;;;;;5.10;4.60;;;24.40;45.70;;;23.90;41.30;97542.22;5045153;28;20045;-36
2022/05/11 10:05:44;;;;;;;6.05;4.43;;;24.50;46.20;;;23.95;40.72;97531.44;5043838;28;20048;-36
2022/05/11 10:08:40;;;;;;;4.38;3.92;;;24.50;45.40;;;24.01;41.03;97527.69;5043534;28;20088;-36
2022/05/11 10:11:23;;;;;;;6.13;4.47;;;24.60;45.20;;;24.14;40.54;97526.53;5044033;28;20245;-35
2022/05/11 10:23:17;;;;;;;4.68;4.28;;;24.80;46.50;;;24.37;39.99;97520.84;5044584;28;20051;-35
2022/05/11 10:26:08;;;;;;;6.45;4.10;;;24.90;43.60;;;24.38;39.99;97522.47;5042953;28;20049;-35
2022/05/11 10:29:09;;;;;;;5.75;4.93;;;24.90;44.20;;;24.41;39.78;97521.16;5044606;28;20052;-35
2022/05/11 10:31:52;;;;;;;4.68;4.10;;;24.90;43.90;;;24.48;39.99;97507.34;5043680;28;20045;-35
2022/05/11 10:34:35;;;;;;;;;;;25.00;43.80;;;24.44;39.03;97509.75;5060349;28;20067;-35
2022/05/11 10:37:31;;;;;;;4.63;3.75;;;24.90;41.30;;;24.51;38.34;97501.44;5044634;28;19927;-35
2022/05/11 10:40:23;;;;;;;4.28;3.65;;;25.00;40.50;;;24.51;36.84;97496.81;5044916;28;20049;-35
2022/05/11 10:43:31;;;;;;;4.13;3.72;;;25.00;39.50;;;24.54;37.32;97493.59;5043008;28;20231;-35
2022/05/11 10:46:51;;;;;;;4.72;3.67;;;25.10;40.60;;;24.56;34.21;97498.75;5044441;28;20063;-35
2022/05/11 10:50:07;;;;;;;3.45;3.10;;;25.10;37.40;;;24.58;34.38;97493.88;5042958;28;20041;-35
2022/05/11 10:53:16;;;;;;;4.32;3.85;;;25.20;36.80;;;24.56;33.27;97483.28;5043354;28;20266;-35
2022/05/11 10:56:17;;;;;;;5.13;4.72;;;25.20;36.10;;;24.59;34.07;97501.00;5043783;28;20045;-35
2022/05/11 10:59:29;;;;;;;4.72;3.30;;;25.30;37.10;;;24.61;34.69;97490.66;5043971;28;20072;-35
2022/05/11 11:02:39;;;;;;;3.78;3.10;;;25.20;36.30;;;24.58;34.05;97471.31;5044103;28;20045;-34
2022/05/11 11:05:15;;;;;;;3.78;3.35;;;25.20;35.90;;;24.64;33.83;97475.72;5042834;28;20057;-34
2022/05/11 11:08:27;;;;;;;5.68;3.38;;;25.20;36.60;;;24.76;33.39;97473.69;5035568;28;20058;-35
2022/05/11 11:11:26;;;;;;;4.85;3.90;;;25.40;36.10;;;24.78;34.02;97471.53;5022972;28;20045;-34
2022/05/11 11:14:01;;;;;;;4.88;3.22;;;25.30;35.70;;;24.80;33.81;97474.00;5024407;28;20366;-34
2022/05/11 11:16:49;;;;;;;7.97;3.55;;;25.30;36.30;;;24.81;34.02;97464.72;5024319;28;20060;-34
2022/05/11 11:19:17;;;;;;;3.92;3.55;;;25.20;36.60;;;24.84;34.12;97465.03;5022082;28;20056;-35
2022/05/11 11:21:45;;;;;;;4.65;3.45;;;25.30;36.90;;;24.87;34.31;97453.66;5022416;28;20044;-35
2022/05/11 11:24:23;;;;;;;3.37;3.03;;;25.40;36.80;;;24.89;33.42;97454.22;5023247;28;20057;-35
2022/05/11 11:27:06;;;;;;;4.30;3.85;;;25.50;35.70;;;25.02;32.93;97444.78;5023478;28;20053;-34
2022/05/11 11:29:37;;;;;;;4.45;3.95;;;25.70;35.30;;;25.14;33.53;97447.31;5023648;28;20332;-34